Time;durP1;ratioP1;P1;durP2;ratioP2;P2;SDS_P1;SDS_P2;PMS_P1;PMS_P2;Temp;Humidity;BMP_temperature;BMP_pressure;BME280_temperature;BME280_humidity;BME280_pressure;Samples;Min_cycle;Max_cycle;Signal;HPM_P1;HPM_P2
2021/12/17 00:00:09;;;;;;;17.08;8.63;;;;;;;0.78;100.00;95460.44;10506642;28;20504;-70
2021/12/17 00:05:13;;;;;;;18.90;9.48;;;;;;;0.84;100.00;95459.63;10523202;28;20111;-71
2021/12/17 00:10:18;;;;;;;16.80;9.00;;;;;;;0.84;100.00;95464.94;10511458;28;20029;-75
2021/12/17 00:15:18;;;;;;;19.52;8.70;;;;;;;0.91;100.00;95474.72;10441311;28;20063;-75
2021/12/17 00:51:58;;;;;;;17.90;7.43;;;;;;;1.39;100.00;95472.13;10489571;28;20557;-71
2021/12/17 00:57:04;;;;;;;12.77;7.30;;;;;;;1.55;100.00;95465.69;10487026;28;20508;-73
2021/12/17 01:02:09;;;;;;;13.32;7.18;;;;;;;1.69;100.00;95483.25;10487440;28;20016;-71
2021/12/17 01:07:11;;;;;;;19.00;7.82;;;;;;;1.78;100.00;95470.66;10470949;28;20455;-72
2021/12/17 01:12:13;;;;;;;9.18;5.55;;;;;;;1.67;100.00;95453.50;10470650;28;20406;-73
2021/12/17 01:17:17;;;;;;;12.80;6.10;;;;;;;1.46;100.00;95451.78;10486727;28;20027;-72
2021/12/17 01:43:31;;;;;;;10.07;4.57;;;;;;;1.97;100.00;95429.31;10487202;28;20025;-71
2021/12/17 01:48:51;;;;;;;6.70;4.72;;;;;;;2.03;100.00;95409.94;10487212;28;20025;-76
2021/12/17 02:04:46;;;;;;;14.40;5.82;;;;;;;1.88;100.00;95419.91;10410570;28;20635;-68
2021/12/17 02:32:00;;;;;;;8.48;5.07;;;;;;;1.64;100.00;95414.16;10485637;28;20095;-71
2021/12/17 02:37:05;;;;;;;11.77;4.45;;;;;;;1.56;100.00;95406.38;10467936;28;20052;-70
2021/12/17 02:47:25;;;;;;;8.57;4.35;;;;;;;1.82;100.00;95413.56;10442602;28;20520;-72
2021/12/17 02:52:29;;;;;;;9.15;4.13;;;;;;;1.96;100.00;95409.09;10442413;28;20025;-70
2021/12/17 02:57:31;;;;;;;10.07;4.72;;;;;;;2.04;100.00;95402.81;10425249;28;20053;-72
2021/12/17 03:02:36;;;;;;;9.27;5.25;;;;;;;2.17;100.00;95409.94;10441228;28;20078;-71
2021/12/17 03:07:40;;;;;;;7.68;4.88;;;;;;;1.86;100.00;95414.00;10441373;28;20025;-74
2021/12/17 03:12:55;;;;;;;11.43;4.63;;;;;;;1.94;100.00;95410.31;10442394;28;20021;-67
2021/12/17 03:28:16;;;;;;;9.23;5.05;;;;;;;2.03;100.00;95412.59;10442795;28;20100;-74
2021/12/17 03:33:17;;;;;;;9.60;6.10;;;;;;;2.24;100.00;95405.47;10440915;28;20017;-75
2021/12/17 03:38:18;;;;;;;13.00;6.38;;;;;;;2.30;100.00;95414.44;10440562;28;20495;-73
2021/12/17 03:43:29;;;;;;;13.52;7.53;;;;;;;2.30;100.00;95406.47;10440628;28;20029;-76
2021/12/17 03:48:31;;;;;;;11.02;6.55;;;;;;;2.28;100.00;95396.06;10458001;28;20029;-71
2021/12/17 03:53:32;;;;;;;12.95;6.13;;;;;;;2.08;100.00;95393.44;10440596;28;20060;-73
2021/12/17 03:58:32;;;;;;;13.98;6.50;;;;;;;1.97;100.00;95388.75;10440053;28;20032;-70
2021/12/17 04:03:33;;;;;;;14.05;6.78;;;;;;;2.15;100.00;95382.81;10440108;28;20049;-74
2021/12/17 04:08:34;;;;;;;11.02;6.03;;;;;;;2.19;100.00;95374.25;10430968;28;20035;-72
2021/12/17 04:13:37;;;;;;;8.73;5.35;;;;;;;1.98;100.00;95380.59;10447928;28;20029;-69
2021/12/17 04:18:40;;;;;;;11.55;5.95;;;;;;;2.03;100.00;95379.97;10449699;28;20116;-75
2021/12/17 04:23:42;;;;;;;14.60;7.30;;;;;;;1.56;100.00;95368.50;10448754;28;20486;-68
2021/12/17 04:28:49;;;;;;;12.15;6.22;;;;;;;1.42;100.00;95354.41;10447752;28;20025;-73
2021/12/17 04:33:50;;;;;;;12.45;6.10;;;;;;;1.23;100.00;95348.03;10447272;28;20021;-71
2021/12/17 04:38:50;;;;;;;11.23;6.38;;;;;;;1.48;100.00;95337.69;10431095;28;20036;-72
2021/12/17 04:59:35;;;;;;;10.95;6.18;;;;;;;1.69;100.00;95331.44;10485262;28;20024;-71
2021/12/17 05:04:37;;;;;;;12.10;6.88;;;;;;;1.63;100.00;95342.81;10486704;28;20016;-72
2021/12/17 05:09:47;;;;;;;10.40;5.70;;;;;;;1.60;100.00;95344.03;10459556;28;20024;-75
2021/12/17 05:20:22;;;;;;;10.95;5.45;;;;;;;1.65;100.00;95343.44;10455141;28;20096;-70
2021/12/17 05:25:26;;;;;;;12.60;7.15;;;;;;;1.76;100.00;95342.84;10453409;28;20043;-71
2021/12/17 05:30:32;;;;;;;14.43;6.03;;;;;;;1.82;100.00;95344.66;10486417;28;20032;-76
2021/12/17 05:35:32;;;;;;;11.50;5.63;;;;;;;1.85;100.00;95341.59;10487117;28;20116;-71
2021/12/17 05:40:32;;;;;;;10.23;6.93;;;;;;;1.88;100.00;95343.03;10486851;28;20166;-73
2021/12/17 05:45:37;;;;;;;11.05;6.78;;;;;;;2.04;100.00;95328.56;10485985;28;20036;-71
2021/12/17 05:50:40;;;;;;;8.55;5.30;;;;;;;1.95;100.00;95335.91;10485307;28;20442;-70
2021/12/17 05:55:40;;;;;;;8.57;5.05;;;;;;;2.07;100.00;95320.22;10490377;28;20822;-72
2021/12/17 06:00:42;;;;;;;8.73;5.25;;;;;;;2.03;100.00;95326.94;10484823;28;20029;-72
2021/12/17 06:05:42;;;;;;;12.82;7.25;;;;;;;2.11;100.00;95332.03;10484824;28;20023;-73
2021/12/17 06:10:43;;;;;;;9.40;5.05;;;;;;;2.04;100.00;95340.00;10487035;28;20024;-71
2021/12/17 06:15:44;;;;;;;6.28;3.47;;;;;;;2.12;100.00;95344.28;10484129;28;20036;-69
2021/12/17 06:20:44;;;;;;;5.03;3.20;;;;;;;2.14;100.00;95355.47;10468631;28;20025;-75
2021/12/17 06:25:44;;;;;;;4.82;2.90;;;;;;;2.16;100.00;95360.56;10486531;28;20653;-72
2021/12/17 06:30:45;;;;;;;2.95;2.63;;;;;;;2.29;100.00;95342.00;10483577;28;20025;-75
2021/12/17 06:35:46;;;;;;;4.03;2.65;;;;;;;2.14;100.00;95331.63;10484140;28;20055;-76
2021/12/17 06:40:48;;;;;;;6.25;2.83;;;;;;;2.19;100.00;95333.66;10466859;28;20020;-71
2021/12/17 07:42:40;;;;;;;8.23;4.70;;;;;;;1.80;100.00;95332.63;10481928;28;20486;-71
2021/12/17 07:47:40;;;;;;;14.98;8.05;;;;;;;1.69;100.00;95334.06;10482066;28;20029;-71
2021/12/17 07:52:40;;;;;;;11.18;6.70;;;;;;;1.75;100.00;95338.56;10481640;28;20043;-70
2021/12/17 07:57:41;;;;;;;11.23;6.60;;;;;;;1.94;100.00;95333.47;10481782;28;20060;-72
2021/12/17 08:02:41;;;;;;;12.35;6.70;;;;;;;1.85;100.00;95330.19;10482104;28;20325;-72
2021/12/17 08:07:42;;;;;;;10.30;6.63;;;;;;;1.86;100.00;95337.13;10481525;28;20028;-71
2021/12/17 08:12:42;;;;;;;8.13;6.28;;;;;;;1.97;100.00;95338.38;10481178;28;20028;-73
2021/12/17 08:18:16;;;;;;;13.52;7.50;;;;;;;1.78;100.00;95346.09;10482961;28;20486;-72
2021/12/17 08:28:22;;;;;;;14.38;7.43;;;;;;;1.85;100.00;95344.25;10482248;28;20075;-73
2021/12/17 08:33:23;;;;;;;13.52;8.05;;;;;;;1.82;100.00;95327.97;10481396;28;20458;-73
2021/12/17 08:38:23;;;;;;;15.10;8.20;;;;;;;1.82;100.00;95331.41;10436490;28;20071;-73
2021/12/17 08:43:25;;;;;;;12.07;7.63;;;;;;;1.95;100.00;95332.44;10441346;28;20033;-73
2021/12/17 08:48:25;;;;;;;15.48;7.03;;;;;;;2.03;100.00;95321.63;10439937;28;20035;-71
2021/12/17 08:53:26;;;;;;;14.68;7.45;;;;;;;2.15;100.00;95316.50;10444134;28;20048;-71
2021/12/17 08:58:26;;;;;;;12.70;7.72;;;;;;;2.04;100.00;95297.56;10447014;28;20455;-78
2021/12/17 09:03:26;;;;;;;8.55;5.90;;;;;;;2.11;100.00;95302.88;10446167;28;20025;-75
2021/12/17 09:08:27;;;;;;;13.57;7.23;;;;;;;2.26;100.00;95291.22;10446237;28;20406;-69
2021/12/17 09:13:28;;;;;;;9.75;6.65;;;;;;;2.33;100.00;95286.69;10482125;28;20274;-80
2021/12/17 09:18:28;;;;;;;9.65;5.80;;;;;;;2.41;100.00;95277.72;10487216;28;20119;-70
2021/12/17 09:23:29;;;;;;;10.73;6.80;;;;;;;2.50;100.00;95271.97;10470730;28;20454;-73
2021/12/17 09:28:31;;;;;;;8.93;5.55;;;;;;;2.66;100.00;95265.38;10486458;28;20025;-72
2021/12/17 09:33:33;;;;;;;11.38;6.38;;;;;;;2.55;100.00;95258.06;10469522;28;20028;-71
2021/12/17 09:38:33;;;;;;;11.75;6.45;;;;;;;2.54;100.00;95262.56;10469872;28;20019;-74
2021/12/17 09:43:36;;;;;;;14.07;7.90;;;;;;;2.53;100.00;95245.03;10485804;28;20387;-73
2021/12/17 09:48:36;;;;;;;17.92;8.00;;;;;;;2.63;100.00;95239.25;10485117;28;20051;-72
2021/12/17 09:53:37;;;;;;;12.70;7.38;;;;;;;2.52;100.00;95216.84;10469022;28;20043;-71
2021/12/17 09:58:38;;;;;;;14.40;7.95;;;;;;;2.44;100.00;95211.78;10485692;28;20043;-71
2021/12/17 10:03:38;;;;;;;14.82;8.45;;;;;;;2.79;100.00;95222.06;10467993;28;20123;-70
2021/12/17 10:08:47;;;;;;;16.58;8.05;;;;;;;3.23;100.00;95204.41;10485581;28;20031;-72
2021/12/17 10:13:48;;;;;;;15.27;8.02;;;;;;;3.12;100.00;95188.38;10485330;28;20056;-72
2021/12/17 10:18:49;;;;;;;14.75;8.50;;;;;;;3.46;100.00;95165.84;10484683;28;20127;-73
2021/12/17 10:23:52;;;;;;;13.20;7.55;;;;;;;3.75;100.00;95147.56;10484336;28;20108;-74
2021/12/17 10:29:07;;;;;;;11.88;6.70;;;;;;;4.06;100.00;95141.31;10484441;28;20123;-71
2021/12/17 10:34:15;;;;;;;10.00;6.35;;;;;;;4.48;100.00;95145.94;10484120;28;20025;-72
2021/12/17 10:39:23;;;;;;;14.30;6.63;;;;;;;5.13;100.00;95133.75;10483090;28;20031;-71
2021/12/17 10:44:24;;;;;;;10.13;6.15;;;;;;;4.99;100.00;95124.34;10483255;28;20031;-74
2021/12/17 10:49:25;;;;;;;10.70;5.75;;;;;;;4.26;100.00;95098.50;10483091;28;20028;-70
2021/12/17 10:54:28;;;;;;;8.38;5.90;;;;;;;3.79;100.00;95092.91;10482486;28;20044;-71
2021/12/17 10:59:31;;;;;;;8.15;5.35;;;;;;;3.72;100.00;95106.28;10482693;28;20619;-72
2021/12/17 11:04:38;;;;;;;7.55;5.03;;;;;;;4.00;100.00;95117.44;10466343;28;20047;-74
2021/12/17 11:09:41;;;;;;;5.80;4.35;;;;;;;4.00;100.00;95114.78;10429412;28;20215;-72
2021/12/17 11:14:43;;;;;;;8.57;5.75;;;;;;;3.95;100.00;95110.16;10442048;28;20082;-72
2021/12/17 11:19:44;;;;;;;9.93;5.85;;;;;;;4.07;100.00;95105.69;10424383;28;20032;-70
2021/12/17 11:24:45;;;;;;;13.05;6.43;;;;;;;4.27;100.00;95105.44;10440646;28;20486;-72
2021/12/17 11:29:45;;;;;;;10.43;5.72;;;;;;;3.92;100.00;95090.13;10440221;28;20436;-76
2021/12/17 11:34:47;;;;;;;13.73;7.68;;;;;;;3.70;100.00;95068.50;10440424;28;20021;-74
2021/12/17 11:40:02;;;;;;;9.43;5.18;;;;;;;4.06;100.00;95061.53;10442049;28;20033;-79
2021/12/17 11:45:24;;;;;;;9.43;4.85;;;;;;;3.67;100.00;95053.00;10439983;28;20442;-71
2021/12/17 11:50:24;;;;;;;8.80;5.53;;;;;;;3.84;100.00;95039.09;10477785;28;20025;-72
2021/12/17 11:55:33;;;;;;;5.90;4.05;;;;;;;3.70;100.00;95036.59;10450164;28;20398;-72
2021/12/17 12:00:40;;;;;;;12.02;4.47;;;;;;;3.87;100.00;95028.00;10422702;28;20035;-78
2021/12/17 12:05:43;;;;;;;16.75;6.63;;;;;;;3.35;100.00;95031.88;10453962;28;20048;-72
2021/12/17 12:11:04;;;;;;;10.85;5.07;;;;;;;2.95;100.00;95026.94;10439661;28;20183;-74
2021/12/17 12:16:06;;;;;;;6.30;3.92;;;;;;;2.59;100.00;95019.69;10439178;28;20024;-73
2021/12/17 12:21:08;;;;;;;10.23;5.10;;;;;;;2.45;100.00;95006.50;10440580;28;20029;-69
2021/12/17 12:26:14;;;;;;;9.13;5.90;;;;;;;2.35;100.00;95008.81;10442056;28;20025;-76
2021/12/17 12:31:15;;;;;;;7.82;4.60;;;;;;;2.35;100.00;95003.53;10446698;28;20349;-72
2021/12/17 12:36:15;;;;;;;8.63;5.90;;;;;;;2.32;100.00;94998.66;10446860;28;20494;-73
2021/12/17 12:41:16;;;;;;;9.05;5.70;;;;;;;2.40;100.00;94995.75;10446442;28;20058;-72
2021/12/17 12:46:49;;;;;;;7.50;5.15;;;;;;;2.45;100.00;94982.63;10446354;28;20028;-78
2021/12/17 12:51:50;;;;;;;9.00;5.10;;;;;;;2.44;100.00;94975.69;10446372;28;20029;-74
2021/12/17 12:56:50;;;;;;;6.18;4.50;;;;;;;2.34;100.00;94962.09;10463077;28;20040;-69
2021/12/17 13:01:50;;;;;;;8.90;5.22;;;;;;;2.34;100.00;94967.41;10461149;28;20086;-73
2021/12/17 13:06:51;;;;;;;5.88;3.67;;;;;;;2.65;100.00;94981.66;10445553;28;20487;-74
2021/12/17 13:11:51;;;;;;;5.20;3.95;;;;;;;2.59;100.00;94958.66;10485215;28;20024;-74
2021/12/17 13:17:17;;;;;;;2.92;2.47;;;;;;;2.52;100.00;94953.41;10486332;28;20035;-70
2021/12/17 13:22:32;;;;;;;6.60;4.05;;;;;;;2.46;100.00;94962.22;10486763;28;20387;-69
2021/12/17 13:27:32;;;;;;;3.92;2.97;;;;;;;2.68;100.00;94979.38;10492342;28;20024;-67
2021/12/17 13:32:34;;;;;;;3.03;2.67;;;;;;;2.60;100.00;94962.94;10485717;28;20032;-69
2021/12/17 13:37:36;;;;;;;3.72;3.42;;;;;;;2.42;100.00;94969.00;10484762;28;20425;-73
2021/12/17 13:42:47;;;;;;;6.60;3.50;;;;;;;2.45;100.00;94952.66;10485456;28;20020;-71
2021/12/17 13:47:50;;;;;;;5.40;3.35;;;;;;;2.49;100.00;94962.59;10469501;28;20093;-75
2021/12/17 13:52:58;;;;;;;6.70;4.20;;;;;;;2.65;100.00;94966.56;10484731;28;20024;-69
2021/12/17 13:58:05;;;;;;;7.90;4.27;;;;;;;2.64;100.00;94959.63;10485208;28;20453;-75
2021/12/17 14:03:11;;;;;;;6.05;4.28;;;;;;;2.85;100.00;94933.72;10486496;28;20111;-71
2021/12/17 14:08:15;;;;;;;5.68;4.22;;;;;;;3.09;100.00;94955.94;10483646;28;20032;-72
2021/12/17 14:13:22;;;;;;;6.03;3.30;;;;;;;2.86;100.00;94941.47;10483671;28;20028;-79
2021/12/17 14:18:24;;;;;;;4.70;3.22;;;;;;;3.08;100.00;94948.97;10485199;28;20412;-68
2021/12/17 14:23:30;;;;;;;7.60;3.63;;;;;;;2.98;100.00;94948.69;10483528;28;20027;-71
2021/12/17 14:28:33;;;;;;;4.97;3.13;;;;;;;2.97;100.00;94981.56;10483374;28;20580;-71
2021/12/17 14:33:47;;;;;;;6.53;4.50;;;;;;;2.95;100.00;94995.06;10483274;28;20027;-71
2021/12/17 14:38:54;;;;;;;6.65;4.00;;;;;;;2.97;100.00;94994.84;10466660;28;20089;-72
2021/12/17 14:44:03;;;;;;;7.95;3.67;;;;;;;2.90;100.00;95000.22;10482348;28;20416;-71
2021/12/17 15:05:05;;;;;;;7.90;5.30;;;;;;;2.50;100.00;95011.19;10481474;28;20025;-75
2021/12/17 15:10:08;;;;;;;6.82;4.18;;;;;;;2.48;100.00;95014.03;10465603;28;20098;-71
2021/12/17 15:15:21;;;;;;;10.43;4.65;;;;;;;2.45;100.00;95029.56;10465103;28;20532;-73
2021/12/17 15:20:27;;;;;;;7.70;4.80;;;;;;;2.45;100.00;95029.56;10482275;28;20568;-71
2021/12/17 15:25:28;;;;;;;8.77;5.15;;;;;;;2.33;100.00;95043.53;10465431;28;20029;-72
2021/12/17 15:30:34;;;;;;;9.05;4.88;;;;;;;2.30;100.00;95043.13;10481176;28;20024;-70
2021/12/17 15:35:35;;;;;;;7.45;5.30;;;;;;;1.82;100.00;95036.44;10445991;28;20090;-70
2021/12/17 15:40:38;;;;;;;9.40;4.85;;;;;;;2.08;100.00;95050.59;10439712;28;20443;-71
2021/12/17 15:45:41;;;;;;;9.48;4.93;;;;;;;1.78;100.00;95062.53;10439890;28;20032;-71
2021/12/17 15:50:42;;;;;;;12.32;5.88;;;;;;;2.02;100.00;95062.84;10425205;28;20507;-72
2021/12/17 15:55:43;;;;;;;15.57;6.00;;;;;;;2.10;100.00;95070.56;10481081;28;20052;-74
2021/12/17 16:00:44;;;;;;;8.43;5.57;;;;;;;1.94;100.00;95068.41;10483808;28;20127;-71
2021/12/17 16:05:44;;;;;;;8.43;5.38;;;;;;;1.90;100.00;95077.78;10460883;28;20029;-71
2021/12/17 16:21:25;;;;;;;9.55;6.20;;;;;;;1.46;100.00;95067.75;10449077;28;20024;-71
2021/12/17 16:26:26;;;;;;;9.05;5.53;;;;;;;1.41;100.00;95062.28;10447882;28;20021;-73
2021/12/17 16:31:29;;;;;;;10.05;5.80;;;;;;;1.64;100.00;95074.22;10489673;28;20020;-72
2021/12/17 16:36:31;;;;;;;11.07;7.03;;;;;;;1.52;100.00;95064.28;10487805;28;20039;-75
2021/12/17 16:41:32;;;;;;;10.65;6.93;;;;;;;1.40;100.00;95076.53;10487325;28;20519;-73
2021/12/17 16:51:41;;;;;;;14.23;8.15;;;;;;;1.38;100.00;95098.94;10447191;28;20017;-70
2021/12/17 16:56:42;;;;;;;15.50;8.40;;;;;;;1.53;100.00;95115.41;10445950;28;20111;-70
2021/12/17 17:01:43;;;;;;;15.43;7.95;;;;;;;1.48;100.00;95102.78;10429449;28;20508;-73
2021/12/17 17:06:43;;;;;;;23.85;8.88;;;;;;;1.34;100.00;95101.16;10462118;28;20119;-68
2021/12/17 17:11:44;;;;;;;15.52;9.40;;;;;;;1.37;100.00;95106.06;10445170;28;20029;-71
2021/12/17 17:16:45;;;;;;;14.98;8.93;;;;;;;1.24;100.00;95114.81;10445649;28;20025;-73
2021/12/17 17:21:45;;;;;;;19.85;9.63;;;;;;;0.93;100.00;95121.56;10422440;28;20024;-74
2021/12/17 17:26:46;;;;;;;22.35;10.38;;;;;;;0.69;100.00;95133.56;10486651;28;20028;-75
2021/12/17 17:31:47;;;;;;;26.83;12.45;;;;;;;0.56;100.00;95144.09;10486808;28;20028;-74
2021/12/17 17:36:47;;;;;;;22.15;12.10;;;;;;;0.50;100.00;95143.91;10484730;28;20025;-72
2021/12/17 17:41:48;;;;;;;27.27;15.20;;;;;;;0.51;100.00;95150.00;10444902;28;20029;-71
2021/12/17 17:46:48;;;;;;;21.95;11.30;;;;;;;0.36;100.00;95138.78;10471711;28;20290;-75
2021/12/17 17:51:50;;;;;;;23.40;10.15;;;;;;;0.51;100.00;95145.50;10485127;28;20564;-69
2021/12/17 17:56:51;;;;;;;16.88;8.98;;;;;;;0.39;100.00;95144.50;10458692;28;20124;-73
2021/12/17 18:01:51;;;;;;;20.58;11.35;;;;;;;0.53;100.00;95144.50;10444611;28;20041;-75
2021/12/17 18:06:52;;;;;;;21.02;10.23;;;;;;;0.68;100.00;95148.63;10443319;28;20036;-71
2021/12/17 18:11:53;;;;;;;24.85;13.73;;;;;;;0.50;100.00;95143.91;10426651;28;20109;-69
2021/12/17 18:16:53;;;;;;;28.23;13.68;;;;;;;0.36;100.00;95136.94;10426567;28;20037;-71
2021/12/17 18:21:54;;;;;;;23.83;12.82;;;;;;;0.24;100.00;95133.22;10444355;28;20037;-71
2021/12/17 18:26:54;;;;;;;31.20;12.25;;;;;;;0.15;100.00;95135.25;10452445;28;20047;-71
2021/12/17 18:31:55;;;;;;;32.40;13.70;;;;;;;0.09;100.00;95142.13;10464085;28;20023;-76
2021/12/17 18:36:55;;;;;;;28.98;14.50;;;;;;;0.30;100.00;95157.03;10483957;28;20040;-73
2021/12/17 18:47:15;;;;;;;22.83;13.73;;;;;;;0.65;100.00;95149.00;10442959;28;20054;-69
2021/12/17 18:52:16;;;;;;;28.63;13.10;;;;;;;0.50;100.00;95146.56;10442175;28;20532;-75
2021/12/17 18:57:17;;;;;;;27.95;13.98;;;;;;;0.24;100.00;95141.16;10482700;28;20057;-70
2021/12/17 19:02:17;;;;;;;33.35;14.50;;;;;;;0.33;100.00;95156.66;10465827;28;20078;-72
2021/12/17 19:07:18;;;;;;;32.72;14.23;;;;;;;0.17;100.00;95157.81;10460492;28;20085;-71
2021/12/17 19:12:18;;;;;;;31.92;15.35;;;;;;;0.05;100.00;95169.16;10457595;28;20029;-71
2021/12/17 19:17:19;;;;;;;32.28;14.60;;;;;;;0.25;100.00;95159.50;10497621;28;20035;-71
2021/12/17 19:22:31;;;;;;;34.88;15.88;;;;;;;-0.01;100.00;95163.63;10472182;28;20441;-75
2021/12/17 19:27:32;;;;;;;37.20;15.48;;;;;;;-0.03;100.00;95159.56;10480118;28;20028;-74
2021/12/17 19:32:32;;;;;;;37.53;14.52;;;;;;;-0.12;100.00;95161.56;10480720;28;20027;-75
2021/12/17 19:37:33;;;;;;;35.85;18.63;;;;;;;-0.11;100.00;95155.28;10523413;28;20032;-70
2021/12/17 19:42:33;;;;;;;34.92;13.70;;;;;;;-0.06;100.00;95158.13;10472122;28;20422;-72
2021/12/17 19:52:39;;;;;;;34.95;15.23;;;;;;;0.08;100.00;95153.72;10438574;28;20040;-70
2021/12/17 19:57:40;;;;;;;37.30;15.52;;;;;;;0.10;100.00;95151.69;10423350;28;20057;-70
2021/12/17 20:02:45;;;;;;;33.53;16.17;;;;;;;-0.06;100.00;95163.41;10439471;28;20758;-70
2021/12/17 20:07:45;;;;;;;39.88;17.02;;;;;;;-0.13;100.00;95159.91;10449397;28;20111;-74
2021/12/17 20:12:46;;;;;;;35.70;17.13;;;;;;;-0.10;100.00;95166.66;10507362;28;20039;-73
2021/12/17 20:17:46;;;;;;;35.22;15.48;;;;;;;-0.21;100.00;95157.44;10483268;28;20033;-75
2021/12/17 20:22:48;;;;;;;40.58;19.27;;;;;;;-0.30;100.00;95159.44;10483271;28;20387;-73
2021/12/17 20:27:49;;;;;;;38.53;17.27;;;;;;;-0.23;100.00;95172.69;10463771;28;20029;-73
2021/12/17 20:32:50;;;;;;;41.20;17.55;;;;;;;-0.15;100.00;95169.88;10463331;28;20028;-70
2021/12/17 20:37:50;;;;;;;33.80;15.60;;;;;;;-0.12;100.00;95172.13;10462736;28;20043;-66
2021/12/17 20:43:15;;;;;;;42.33;17.13;;;;;;;-0.34;100.00;95160.81;10481346;28;20294;-68
2021/12/17 20:48:15;;;;;;;42.28;16.90;;;;;;;-0.38;100.00;95156.94;10484448;28;20028;-73
2021/12/17 20:53:16;;;;;;;48.47;20.23;;;;;;;-0.42;100.00;95156.53;10486156;28;20198;-70
2021/12/17 20:58:16;;;;;;;37.95;15.65;;;;;;;-0.39;100.00;95150.84;10487697;28;20089;-74
2021/12/17 21:03:17;;;;;;;36.00;16.75;;;;;;;-0.49;100.00;95142.44;10486989;28;20450;-71
2021/12/17 21:08:18;;;;;;;29.25;13.82;;;;;;;-0.48;100.00;95133.53;10478995;28;20161;-70
2021/12/17 21:13:19;;;;;;;29.90;14.13;;;;;;;-0.42;100.00;95142.50;10482435;28;20051;-69
2021/12/17 21:18:20;;;;;;;28.15;14.38;;;;;;;-0.40;100.00;95130.72;10428356;28;20201;-72
2021/12/17 21:23:22;;;;;;;32.58;13.77;;;;;;;-0.41;100.00;95134.38;10445477;28;20569;-70
2021/12/17 21:28:23;;;;;;;36.97;15.40;;;;;;;-0.37;100.00;95140.09;10446387;28;20059;-75
2021/12/17 21:33:23;;;;;;;27.77;13.77;;;;;;;-0.39;100.00;95139.47;10446014;28;20021;-73
2021/12/17 21:38:24;;;;;;;24.75;13.40;;;;;;;-0.37;100.00;95135.63;10444785;28;20027;-72
2021/12/17 21:43:24;;;;;;;22.95;12.52;;;;;;;-0.31;100.00;95123.47;10444420;28;20029;-71
2021/12/17 21:48:25;;;;;;;24.40;11.60;;;;;;;-0.29;100.00;95126.72;10444342;28;20055;-69
2021/12/17 21:53:26;;;;;;;25.95;11.32;;;;;;;-0.27;100.00;95122.06;10445765;28;20487;-74
2021/12/17 21:58:26;;;;;;;24.15;12.23;;;;;;;-0.21;100.00;95125.75;10484885;28;20046;-72
2021/12/17 22:03:29;;;;;;;26.80;12.07;;;;;;;-0.34;100.00;95115.94;10485156;28;20025;-73
2021/12/17 22:08:31;;;;;;;26.80;11.73;;;;;;;-0.20;100.00;95120.25;10496531;28;20116;-71
2021/12/17 22:13:32;;;;;;;21.83;11.23;;;;;;;-0.28;100.00;95112.53;10505984;28;20028;-71
2021/12/17 22:18:41;;;;;;;21.75;11.10;;;;;;;-0.20;100.00;95108.88;10455402;28;20260;-74
2021/12/17 22:23:42;;;;;;;23.98;11.20;;;;;;;-0.28;100.00;95114.34;10484455;28;20414;-75
2021/12/17 22:28:44;;;;;;;21.70;8.82;;;;;;;-0.19;100.00;95108.69;10484135;28;20043;-75
2021/12/17 22:33:45;;;;;;;18.77;8.82;;;;;;;-0.12;100.00;95110.56;10485209;28;20029;-78
2021/12/17 22:38:50;;;;;;;19.52;9.55;;;;;;;-0.04;100.00;95094.53;10483946;28;20128;-71
2021/12/17 22:43:51;;;;;;;22.17;10.57;;;;;;;-0.26;100.00;95089.34;10483247;28;20028;-77
2021/12/17 22:48:53;;;;;;;20.25;9.27;;;;;;;-0.24;100.00;95086.50;10483108;28;20028;-74
2021/12/17 22:53:53;;;;;;;21.42;9.73;;;;;;;-0.27;100.00;95076.34;10483145;28;20082;-73
2021/12/17 22:58:54;;;;;;;16.73;8.70;;;;;;;-0.24;100.00;95071.50;10482051;28;20117;-74
2021/12/17 23:04:04;;;;;;;15.70;8.55;;;;;;;-0.29;100.00;95070.44;10474743;28;20033;-72
2021/12/17 23:14:12;;;;;;;20.17;9.65;;;;;;;-0.36;100.00;95050.09;10483930;28;20032;-73
2021/12/17 23:19:13;;;;;;;20.05;8.45;;;;;;;-0.48;100.00;95043.75;10482315;28;20028;-72
2021/12/17 23:24:13;;;;;;;15.23;9.20;;;;;;;-0.60;100.00;95061.16;10482251;28;20032;-72
2021/12/17 23:29:15;;;;;;;16.50;9.05;;;;;;;-0.64;100.00;95055.47;10481795;28;20035;-73
2021/12/17 23:39:26;;;;;;;16.92;9.73;;;;;;;-0.64;100.00;95058.13;10481350;28;20115;-71
2021/12/17 23:44:27;;;;;;;19.30;10.43;;;;;;;-0.61;100.00;95065.63;10481990;28;20126;-72
2021/12/17 23:49:27;;;;;;;18.80;8.88;;;;;;;-0.62;100.00;95058.72;10481288;28;20656;-71
2021/12/17 23:54:28;;;;;;;13.65;8.70;;;;;;;-0.73;100.00;95064.53;10481991;28;20076;-72
2021/12/17 23:59:28;;;;;;;21.27;10.15;;;;;;;-0.69;100.00;95063.16;10483037;28;20559;-74
